sensor_id;sensor_type;location;lat;lon;timestamp;pressure;altitude;pressure_sealevel;temperature;humidity
65175;BME280;51761;42.126;24.752;2022-11-15T00:01:09;100373.00;;;8.12;90.19
65175;BME280;51761;42.126;24.752;2022-11-15T00:03:39;100389.78;;;8.26;89.83
65175;BME280;51761;42.126;24.752;2022-11-15T00:06:05;100387.00;;;8.26;89.59
65175;BME280;51761;42.126;24.752;2022-11-15T00:08:31;100394.84;;;8.13;90.75
65175;BME280;51761;42.126;24.752;2022-11-15T00:10:59;100393.38;;;8.30;90.14
65175;BME280;51761;42.126;24.752;2022-11-15T00:13:25;100388.59;;;8.23;90.46
65175;BME280;51761;42.126;24.752;2022-11-15T00:15:51;100391.34;;;8.20;89.94
65175;BME280;51761;42.126;24.752;2022-11-15T00:18:17;100341.00;;;7.81;90.10
65175;BME280;51761;42.126;24.752;2022-11-15T00:20:43;100389.28;;;8.13;89.96
65175;BME280;51761;42.126;24.752;2022-11-15T00:23:09;100393.25;;;8.09;90.29
65175;BME280;51761;42.126;24.752;2022-11-15T00:25:35;100380.53;;;8.11;89.67
65175;BME280;51761;42.126;24.752;2022-11-15T00:28:01;100391.28;;;8.13;89.23
65175;BME280;51761;42.126;24.752;2022-11-15T00:30:27;100366.22;;;8.09;89.32
65175;BME280;51761;42.126;24.752;2022-11-15T00:32:53;100387.88;;;8.40;89.81
65175;BME280;51761;42.126;24.752;2022-11-15T00:35:19;100374.25;;;8.18;89.66
65175;BME280;51761;42.126;24.752;2022-11-15T00:37:45;100386.50;;;8.13;88.83
65175;BME280;51761;42.126;24.752;2022-11-15T00:40:12;100393.63;;;8.07;88.04
65175;BME280;51761;42.126;24.752;2022-11-15T00:42:38;100384.81;;;7.95;88.83
65175;BME280;51761;42.126;24.752;2022-11-15T00:45:04;100367.75;;;8.00;88.42
65175;BME280;51761;42.126;24.752;2022-11-15T00:47:30;100375.66;;;7.94;89.33
65175;BME280;51761;42.126;24.752;2022-11-15T00:49:55;100385.94;;;7.87;89.04
65175;BME280;51761;42.126;24.752;2022-11-15T00:52:21;100374.41;;;7.88;88.78
65175;BME280;51761;42.126;24.752;2022-11-15T00:54:46;100380.88;;;8.03;88.38
65175;BME280;51761;42.126;24.752;2022-11-15T00:57:12;100372.53;;;8.03;88.10
65175;BME280;51761;42.126;24.752;2022-11-15T00:59:37;100367.75;;;7.96;88.22
65175;BME280;51761;42.126;24.752;2022-11-15T01:02:03;100370.03;;;7.84;88.92
65175;BME280;51761;42.126;24.752;2022-11-15T01:04:28;100363.22;;;7.75;88.96
65175;BME280;51761;42.126;24.752;2022-11-15T01:06:54;100368.84;;;7.88;88.97
65175;BME280;51761;42.126;24.752;2022-11-15T01:09:19;100375.31;;;7.99;89.37
65175;BME280;51761;42.126;24.752;2022-11-15T01:11:45;100295.22;;;7.65;89.21
65175;BME280;51761;42.126;24.752;2022-11-15T01:14:10;100370.22;;;8.12;89.12
65175;BME280;51761;42.126;24.752;2022-11-15T01:16:36;100373.41;;;8.14;88.76
65175;BME280;51761;42.126;24.752;2022-11-15T01:19:02;100331.63;;;8.03;88.57
65175;BME280;51761;42.126;24.752;2022-11-15T01:21:27;100362.72;;;8.19;89.09
65175;BME280;51761;42.126;24.752;2022-11-15T01:23:56;100360.06;;;8.40;88.66
65175;BME280;51761;42.126;24.752;2022-11-15T01:26:23;100276.28;;;7.84;88.07
65175;BME280;51761;42.126;24.752;2022-11-15T01:28:48;100354.47;;;8.33;87.74
65175;BME280;51761;42.126;24.752;2022-11-15T01:31:19;100357.56;;;8.21;88.29
65175;BME280;51761;42.126;24.752;2022-11-15T01:33:45;100365.09;;;8.17;88.43
65175;BME280;51761;42.126;24.752;2022-11-15T01:36:14;100362.00;;;8.29;88.73
65175;BME280;51761;42.126;24.752;2022-11-15T01:38:40;100352.78;;;8.18;88.25
65175;BME280;51761;42.126;24.752;2022-11-15T01:41:06;100348.94;;;8.44;87.08
65175;BME280;51761;42.126;24.752;2022-11-15T01:43:36;100342.53;;;8.36;87.86
65175;BME280;51761;42.126;24.752;2022-11-15T01:46:33;100345.31;;;8.36;87.35
65175;BME280;51761;42.126;24.752;2022-11-15T01:49:03;100352.06;;;8.35;86.58
65175;BME280;51761;42.126;24.752;2022-11-15T01:51:34;100312.53;;;8.05;86.59
65175;BME280;51761;42.126;24.752;2022-11-15T01:54:04;100350.50;;;8.34;86.47
65175;BME280;51761;42.126;24.752;2022-11-15T01:56:33;100313.81;;;8.18;85.79
65175;BME280;51761;42.126;24.752;2022-11-15T01:59:03;100339.69;;;8.19;85.92
65175;BME280;51761;42.126;24.752;2022-11-15T02:01:31;100345.69;;;8.24;85.79
65175;BME280;51761;42.126;24.752;2022-11-15T02:06:26;100297.34;;;7.92;86.33
65175;BME280;51761;42.126;24.752;2022-11-15T02:08:51;100305.00;;;8.09;86.32
65175;BME280;51761;42.126;24.752;2022-11-15T02:11:17;100346.91;;;8.37;86.78
65175;BME280;51761;42.126;24.752;2022-11-15T02:13:43;100339.38;;;8.41;86.52
65175;BME280;51761;42.126;24.752;2022-11-15T02:24:57;100313.13;;;8.42;86.94
65175;BME280;51761;42.126;24.752;2022-11-15T02:27:43;100344.22;;;8.58;86.99
65175;BME280;51761;42.126;24.752;2022-11-15T02:32:54;100336.28;;;8.60;86.33
65175;BME280;51761;42.126;24.752;2022-11-15T02:36:21;100315.13;;;8.42;86.33
65175;BME280;51761;42.126;24.752;2022-11-15T02:41:13;100342.63;;;8.57;87.14
65175;BME280;51761;42.126;24.752;2022-11-15T02:43:51;100339.81;;;8.47;86.29
65175;BME280;51761;42.126;24.752;2022-11-15T02:46:49;100337.03;;;8.50;86.46
65175;BME280;51761;42.126;24.752;2022-11-15T02:49:34;100335.09;;;8.65;87.29
65175;BME280;51761;42.126;24.752;2022-11-15T02:52:00;100333.94;;;8.76;86.88
65175;BME280;51761;42.126;24.752;2022-11-15T02:54:29;100327.16;;;8.77;87.20
65175;BME280;51761;42.126;24.752;2022-11-15T02:56:59;100331.53;;;8.71;86.40
65175;BME280;51761;42.126;24.752;2022-11-15T03:06:04;100332.00;;;8.94;85.31
65175;BME280;51761;42.126;24.752;2022-11-15T03:11:27;100324.41;;;8.81;86.19
65175;BME280;51761;42.126;24.752;2022-11-15T03:17:10;100326.00;;;8.85;85.26
65175;BME280;51761;42.126;24.752;2022-11-15T03:19:49;100333.19;;;9.00;85.30
65175;BME280;51761;42.126;24.752;2022-11-15T03:22:19;100335.56;;;8.91;85.28
65175;BME280;51761;42.126;24.752;2022-11-15T03:24:47;100330.00;;;8.84;84.96
65175;BME280;51761;42.126;24.752;2022-11-15T03:27:17;100328.75;;;8.71;86.12
65175;BME280;51761;42.126;24.752;2022-11-15T03:29:48;100322.41;;;8.71;85.44
65175;BME280;51761;42.126;24.752;2022-11-15T03:32:19;100277.75;;;8.46;85.32
65175;BME280;51761;42.126;24.752;2022-11-15T03:34:52;100318.81;;;8.77;85.57
65175;BME280;51761;42.126;24.752;2022-11-15T03:37:20;100290.91;;;8.60;85.40
65175;BME280;51761;42.126;24.752;2022-11-15T03:39:48;100291.69;;;8.46;86.19
65175;BME280;51761;42.126;24.752;2022-11-15T03:42:28;100314.78;;;8.61;86.93
65175;BME280;51761;42.126;24.752;2022-11-15T03:47:32;100314.00;;;8.57;86.25
65175;BME280;51761;42.126;24.752;2022-11-15T03:50:04;100277.72;;;8.36;85.58
65175;BME280;51761;42.126;24.752;2022-11-15T03:52:33;100299.69;;;8.58;84.92
65175;BME280;51761;42.126;24.752;2022-11-15T03:55:01;100289.75;;;8.64;84.75
65175;BME280;51761;42.126;24.752;2022-11-15T03:57:27;100269.44;;;8.53;84.41
65175;BME280;51761;42.126;24.752;2022-11-15T03:59:53;100298.16;;;8.82;84.63
65175;BME280;51761;42.126;24.752;2022-11-15T04:02:18;100283.00;;;8.72;84.74
65175;BME280;51761;42.126;24.752;2022-11-15T04:04:44;100240.69;;;8.21;84.53
65175;BME280;51761;42.126;24.752;2022-11-15T04:07:09;100293.72;;;8.63;83.87
65175;BME280;51761;42.126;24.752;2022-11-15T04:09:35;100284.59;;;8.66;84.20
65175;BME280;51761;42.126;24.752;2022-11-15T04:12:20;100296.50;;;8.63;84.23
65175;BME280;51761;42.126;24.752;2022-11-15T04:15:07;100283.81;;;8.73;84.29
65175;BME280;51761;42.126;24.752;2022-11-15T04:17:46;100277.81;;;8.67;83.67
65175;BME280;51761;42.126;24.752;2022-11-15T04:20:21;100234.44;;;8.56;84.85
65175;BME280;51761;42.126;24.752;2022-11-15T04:23:23;100240.81;;;8.53;84.08
65175;BME280;51761;42.126;24.752;2022-11-15T04:26:10;100257.53;;;8.56;84.62
65175;BME280;51761;42.126;24.752;2022-11-15T04:28:37;100271.06;;;8.75;84.40
65175;BME280;51761;42.126;24.752;2022-11-15T04:31:21;100270.69;;;8.77;84.72
65175;BME280;51761;42.126;24.752;2022-11-15T04:33:46;100244.38;;;8.64;84.69
65175;BME280;51761;42.126;24.752;2022-11-15T04:36:12;100241.22;;;8.58;84.13
65175;BME280;51761;42.126;24.752;2022-11-15T04:38:56;100269.09;;;8.69;83.61
65175;BME280;51761;42.126;24.752;2022-11-15T04:41:21;100281.38;;;8.57;84.17
65175;BME280;51761;42.126;24.752;2022-11-15T04:43:47;100259.06;;;8.43;84.45
65175;BME280;51761;42.126;24.752;2022-11-15T04:46:12;100266.63;;;8.46;84.15
65175;BME280;51761;42.126;24.752;2022-11-15T04:48:38;100227.94;;;8.10;83.90
65175;BME280;51761;42.126;24.752;2022-11-15T04:51:03;100267.41;;;8.36;84.23
65175;BME280;51761;42.126;24.752;2022-11-15T04:53:29;100278.94;;;8.45;84.16
65175;BME280;51761;42.126;24.752;2022-11-15T04:55:54;100250.66;;;8.22;83.59
65175;BME280;51761;42.126;24.752;2022-11-15T04:58:20;100248.19;;;8.10;84.45
65175;BME280;51761;42.126;24.752;2022-11-15T05:00:45;100243.78;;;8.06;84.76
65175;BME280;51761;42.126;24.752;2022-11-15T05:03:10;100246.25;;;8.18;85.56
65175;BME280;51761;42.126;24.752;2022-11-15T05:05:55;100270.56;;;8.35;85.35
65175;BME280;51761;42.126;24.752;2022-11-15T05:08:20;100278.19;;;8.52;85.06
65175;BME280;51761;42.126;24.752;2022-11-15T05:10:47;100267.06;;;8.55;84.05
65175;BME280;51761;42.126;24.752;2022-11-15T05:13:12;100279.78;;;8.56;84.43
65175;BME280;51761;42.126;24.752;2022-11-15T05:15:38;100251.50;;;8.47;83.82
65175;BME280;51761;42.126;24.752;2022-11-15T05:18:03;100276.56;;;8.44;83.94
65175;BME280;51761;42.126;24.752;2022-11-15T05:20:29;100247.91;;;8.29;84.68
65175;BME280;51761;42.126;24.752;2022-11-15T05:22:54;100243.53;;;8.28;84.57
65175;BME280;51761;42.126;24.752;2022-11-15T05:25:23;100270.22;;;8.47;83.77
65175;BME280;51761;42.126;24.752;2022-11-15T05:27:48;100178.56;;;7.89;82.59
65175;BME280;51761;42.126;24.752;2022-11-15T05:30:15;100254.66;;;8.28;83.14
65175;BME280;51761;42.126;24.752;2022-11-15T05:32:40;100276.59;;;8.51;82.65
65175;BME280;51761;42.126;24.752;2022-11-15T05:35:07;100273.78;;;8.40;83.23
65175;BME280;51761;42.126;24.752;2022-11-15T05:37:34;100274.63;;;8.58;83.51
65175;BME280;51761;42.126;24.752;2022-11-15T05:40:00;100245.56;;;8.42;83.29
65175;BME280;51761;42.126;24.752;2022-11-15T05:42:26;100270.66;;;8.59;83.41
65175;BME280;51761;42.126;24.752;2022-11-15T05:44:52;100230.41;;;8.25;83.10
65175;BME280;51761;42.126;24.752;2022-11-15T05:47:22;100269.88;;;8.73;81.56
65175;BME280;51761;42.126;24.752;2022-11-15T05:49:50;100279.81;;;8.77;81.82
65175;BME280;51761;42.126;24.752;2022-11-15T05:52:20;100277.84;;;8.92;81.91
65175;BME280;51761;42.126;24.752;2022-11-15T05:54:48;100277.84;;;8.92;81.29
65175;BME280;51761;42.126;24.752;2022-11-15T05:57:14;100279.84;;;8.91;80.59
65175;BME280;51761;42.126;24.752;2022-11-15T05:59:40;100286.22;;;9.02;80.36
65175;BME280;51761;42.126;24.752;2022-11-15T06:02:09;100291.41;;;8.97;80.05
65175;BME280;51761;42.126;24.752;2022-11-15T06:04:35;100281.03;;;8.87;80.04
65175;BME280;51761;42.126;24.752;2022-11-15T06:07:01;100287.03;;;8.99;80.56
65175;BME280;51761;42.126;24.752;2022-11-15T06:09:26;100297.41;;;9.16;80.00
65175;BME280;51761;42.126;24.752;2022-11-15T06:11:52;100300.59;;;9.22;79.70
65175;BME280;51761;42.126;24.752;2022-11-15T06:14:17;100297.00;;;9.32;77.79
65175;BME280;51761;42.126;24.752;2022-11-15T06:16:43;100277.47;;;8.90;77.69
65175;BME280;51761;42.126;24.752;2022-11-15T06:19:08;100293.38;;;8.89;79.43
65175;BME280;51761;42.126;24.752;2022-11-15T06:21:34;100304.56;;;9.14;79.26
65175;BME280;51761;42.126;24.752;2022-11-15T06:24:00;100259.97;;;9.03;79.51
65175;BME280;51761;42.126;24.752;2022-11-15T06:26:25;100308.53;;;9.23;79.81
65175;BME280;51761;42.126;24.752;2022-11-15T06:28:50;100303.78;;;9.38;79.63
65175;BME280;51761;42.126;24.752;2022-11-15T06:31:16;100302.97;;;9.44;79.56
65175;BME280;51761;42.126;24.752;2022-11-15T06:33:41;100302.97;;;9.44;79.05
65175;BME280;51761;42.126;24.752;2022-11-15T06:36:09;100276.28;;;9.29;77.61
65175;BME280;51761;42.126;24.752;2022-11-15T06:38:36;100303.38;;;9.46;77.86
65175;BME280;51761;42.126;24.752;2022-11-15T06:41:07;100296.59;;;9.47;78.10
65175;BME280;51761;42.126;24.752;2022-11-15T06:43:33;100294.59;;;9.65;77.45
65175;BME280;51761;42.126;24.752;2022-11-15T06:46:00;100293.00;;;9.64;77.31
65175;BME280;51761;42.126;24.752;2022-11-15T06:48:26;100299.34;;;9.82;76.49
65175;BME280;51761;42.126;24.752;2022-11-15T06:50:53;100273.84;;;9.76;75.95
65175;BME280;51761;42.126;24.752;2022-11-15T06:53:19;100298.53;;;10.06;75.32
65175;BME280;51761;42.126;24.752;2022-11-15T06:55:45;100298.91;;;10.11;74.76
65175;BME280;51761;42.126;24.752;2022-11-15T06:58:11;100288.84;;;10.31;73.78
65175;BME280;51761;42.126;24.752;2022-11-15T07:00:36;100298.81;;;10.32;75.20
65175;BME280;51761;42.126;24.752;2022-11-15T07:03:02;100296.53;;;12.57;100.00
65175;BME280;51761;42.126;24.752;2022-11-15T07:05:28;100273.97;;;13.47;100.00
65175;BME280;51761;42.126;24.752;2022-11-15T07:07:55;100295.91;;;14.59;100.00
65175;BME280;51761;42.126;24.752;2022-11-15T07:10:22;100266.91;;;14.62;87.48
65175;BME280;51761;42.126;24.752;2022-11-15T07:12:52;100282.44;;;14.86;83.96
65175;BME280;51761;42.126;24.752;2022-11-15T07:15:21;100281.84;;;15.62;81.70
65175;BME280;51761;42.126;24.752;2022-11-15T07:17:46;100255.91;;;15.99;70.48
65175;BME280;51761;42.126;24.752;2022-11-15T07:20:12;100269.72;;;16.38;70.99
65175;BME280;51761;42.126;24.752;2022-11-15T07:22:39;100272.06;;;16.80;66.38
65175;BME280;51761;42.126;24.752;2022-11-15T07:25:05;100276.28;;;17.38;63.49
65175;BME280;51761;42.126;24.752;2022-11-15T07:27:31;100265.94;;;17.69;57.75
65175;BME280;51761;42.126;24.752;2022-11-15T07:29:56;100261.16;;;18.46;57.38
65175;BME280;51761;42.126;24.752;2022-11-15T07:32:22;100236.22;;;18.54;55.20
65175;BME280;51761;42.126;24.752;2022-11-15T07:34:47;100270.78;;;19.10;53.01
65175;BME280;51761;42.126;24.752;2022-11-15T07:37:13;100271.44;;;19.13;52.43
65175;BME280;51761;42.126;24.752;2022-11-15T07:39:38;100272.28;;;19.23;57.16
65175;BME280;51761;42.126;24.752;2022-11-15T07:42:04;100273.06;;;18.93;49.63
65175;BME280;51761;42.126;24.752;2022-11-15T07:44:48;100274.47;;;18.89;47.04
65175;BME280;51761;42.126;24.752;2022-11-15T07:47:14;100257.19;;;18.22;46.58
65175;BME280;51761;42.126;24.752;2022-11-15T07:49:39;100281.00;;;17.53;46.88
65175;BME280;51761;42.126;24.752;2022-11-15T07:52:05;100272.78;;;17.47;47.74
65175;BME280;51761;42.126;24.752;2022-11-15T07:54:30;100269.03;;;17.50;47.56
65175;BME280;51761;42.126;24.752;2022-11-15T07:56:56;100267.53;;;17.57;48.99
65175;BME280;51761;42.126;24.752;2022-11-15T07:59:22;100234.25;;;17.40;47.68
65175;BME280;51761;42.126;24.752;2022-11-15T08:01:47;100237.78;;;17.07;49.11
65175;BME280;51761;42.126;24.752;2022-11-15T08:04:16;100281.13;;;17.13;49.17
65175;BME280;51761;42.126;24.752;2022-11-15T08:06:41;100262.84;;;17.17;47.87
65175;BME280;51761;42.126;24.752;2022-11-15T08:09:07;100267.34;;;17.02;48.54
65175;BME280;51761;42.126;24.752;2022-11-15T08:11:32;100253.56;;;16.92;48.38
65175;BME280;51761;42.126;24.752;2022-11-15T08:13:58;100257.28;;;16.89;49.57
65175;BME280;51761;42.126;24.752;2022-11-15T08:16:23;100237.41;;;16.67;49.32
65175;BME280;51761;42.126;24.752;2022-11-15T08:18:49;100266.06;;;16.66;49.24
65175;BME280;51761;42.126;24.752;2022-11-15T08:21:18;100262.13;;;16.76;49.36
65175;BME280;51761;42.126;24.752;2022-11-15T08:23:44;100258.88;;;17.15;49.81
65175;BME280;51761;42.126;24.752;2022-11-15T08:26:10;100264.19;;;17.50;47.39
65175;BME280;51761;42.126;24.752;2022-11-15T08:28:35;100250.38;;;17.98;45.69
65175;BME280;51761;42.126;24.752;2022-11-15T08:31:02;100258.88;;;18.20;45.31
65175;BME280;51761;42.126;24.752;2022-11-15T08:33:28;100255.38;;;18.28;45.72
65175;BME280;51761;42.126;24.752;2022-11-15T08:35:56;100242.88;;;18.60;45.67
65175;BME280;51761;42.126;24.752;2022-11-15T08:38:22;100248.91;;;18.71;45.55
65175;BME280;51761;42.126;24.752;2022-11-15T08:40:48;100251.66;;;18.83;45.26
65175;BME280;51761;42.126;24.752;2022-11-15T08:43:15;100244.84;;;19.11;44.60
65175;BME280;51761;42.126;24.752;2022-11-15T08:45:40;100243.94;;;19.53;43.08
65175;BME280;51761;42.126;24.752;2022-11-15T08:48:06;100244.75;;;19.81;41.87
65175;BME280;51761;42.126;24.752;2022-11-15T08:50:31;100240.28;;;19.44;42.21
65175;BME280;51761;42.126;24.752;2022-11-15T08:52:57;100232.84;;;18.98;44.44
65175;BME280;51761;42.126;24.752;2022-11-15T08:55:22;100234.41;;;18.99;44.46
65175;BME280;51761;42.126;24.752;2022-11-15T08:57:48;100232.69;;;19.32;45.00
65175;BME280;51761;42.126;24.752;2022-11-15T09:00:14;100221.63;;;19.73;41.96
65175;BME280;51761;42.126;24.752;2022-11-15T09:02:40;100216.72;;;19.83;42.06
65175;BME280;51761;42.126;24.752;2022-11-15T09:05:06;100180.78;;;19.35;42.87
65175;BME280;51761;42.126;24.752;2022-11-15T09:07:32;100184.06;;;19.33;43.74
65175;BME280;51761;42.126;24.752;2022-11-15T09:09:58;100183.44;;;19.38;43.73
65175;BME280;51761;42.126;24.752;2022-11-15T09:12:24;100200.34;;;19.96;43.11
65175;BME280;51761;42.126;24.752;2022-11-15T09:14:49;100192.47;;;20.00;42.55
65175;BME280;51761;42.126;24.752;2022-11-15T09:17:15;100184.28;;;20.11;42.50
65175;BME280;51761;42.126;24.752;2022-11-15T09:19:41;100184.31;;;20.20;42.03
65175;BME280;51761;42.126;24.752;2022-11-15T09:22:07;100181.41;;;20.38;41.86
65175;BME280;51761;42.126;24.752;2022-11-15T09:24:33;100173.91;;;20.08;43.23
65175;BME280;51761;42.126;24.752;2022-11-15T09:26:58;100175.00;;;20.19;43.27
65175;BME280;51761;42.126;24.752;2022-11-15T09:29:24;100160.06;;;20.01;44.26
65175;BME280;51761;42.126;24.752;2022-11-15T09:31:52;100162.72;;;20.13;44.18
65175;BME280;51761;42.126;24.752;2022-11-15T09:34:17;100156.25;;;20.22;43.16
65175;BME280;51761;42.126;24.752;2022-11-15T09:36:43;100156.75;;;20.02;43.92
65175;BME280;51761;42.126;24.752;2022-11-15T09:39:08;100153.09;;;20.20;43.20
65175;BME280;51761;42.126;24.752;2022-11-15T09:50:09;100142.66;;;20.44;41.51
65175;BME280;51761;42.126;24.752;2022-11-15T09:52:35;100137.78;;;20.26;42.71
65175;BME280;51761;42.126;24.752;2022-11-15T09:55:02;100113.88;;;19.91;43.54
65175;BME280;51761;42.126;24.752;2022-11-15T09:58:00;100134.25;;;20.49;42.62
65175;BME280;51761;42.126;24.752;2022-11-15T10:00:38;100127.13;;;20.63;41.48
65175;BME280;51761;42.126;24.752;2022-11-15T10:03:14;100105.53;;;20.06;43.13
65175;BME280;51761;42.126;24.752;2022-11-15T10:05:46;100119.50;;;20.36;41.22
65175;BME280;51761;42.126;24.752;2022-11-15T10:11:23;100116.06;;;20.74;42.19
65175;BME280;51761;42.126;24.752;2022-11-15T10:13:51;100115.75;;;20.63;41.72
65175;BME280;51761;42.126;24.752;2022-11-15T10:24:34;100097.66;;;20.19;40.67
65175;BME280;51761;42.126;24.752;2022-11-15T10:27:00;100097.84;;;19.52;42.14
65175;BME280;51761;42.126;24.752;2022-11-15T10:29:25;100086.69;;;19.40;42.97
65175;BME280;51761;42.126;24.752;2022-11-15T10:31:51;100063.53;;;19.41;42.43
65175;BME280;51761;42.126;24.752;2022-11-15T10:34:20;100075.50;;;19.72;42.39
65175;BME280;51761;42.126;24.752;2022-11-15T10:36:57;100058.78;;;19.65;41.99
65175;BME280;51761;42.126;24.752;2022-11-15T10:39:23;100051.03;;;18.85;43.56
65175;BME280;51761;42.126;24.752;2022-11-15T10:41:49;100049.81;;;18.47;46.22
65175;BME280;51761;42.126;24.752;2022-11-15T10:44:26;100064.34;;;18.76;46.08
65175;BME280;51761;42.126;24.752;2022-11-15T10:49:31;100059.56;;;19.75;44.39
65175;BME280;51761;42.126;24.752;2022-11-15T10:52:17;100052.63;;;19.85;45.00
65175;BME280;51761;42.126;24.752;2022-11-15T10:54:54;100048.47;;;20.13;42.96
65175;BME280;51761;42.126;24.752;2022-11-15T10:57:27;100055.25;;;20.57;43.00
65175;BME280;51761;42.126;24.752;2022-11-15T11:03:00;100044.13;;;19.85;44.79
65175;BME280;51761;42.126;24.752;2022-11-15T11:08:19;100021.63;;;20.32;43.03
65175;BME280;51761;42.126;24.752;2022-11-15T11:21:30;100015.38;;;20.51;42.92
65175;BME280;51761;42.126;24.752;2022-11-15T11:26:59;99997.13;;;20.11;41.91
65175;BME280;51761;42.126;24.752;2022-11-15T11:32:21;99992.41;;;19.39;44.55
65175;BME280;51761;42.126;24.752;2022-11-15T11:43:54;99971.97;;;19.95;43.67
65175;BME280;51761;42.126;24.752;2022-11-15T11:46:51;99969.66;;;19.84;43.64
65175;BME280;51761;42.126;24.752;2022-11-15T11:57:48;99963.91;;;19.43;44.25
65175;BME280;51761;42.126;24.752;2022-11-15T12:00:22;99965.81;;;19.37;45.02
65175;BME280;51761;42.126;24.752;2022-11-15T12:05:36;99949.00;;;18.89;45.12
65175;BME280;51761;42.126;24.752;2022-11-15T12:08:15;99925.41;;;18.92;44.66
65175;BME280;51761;42.126;24.752;2022-11-15T12:10:47;99936.38;;;19.08;46.12
65175;BME280;51761;42.126;24.752;2022-11-15T12:13:22;99928.38;;;18.88;44.97
65175;BME280;51761;42.126;24.752;2022-11-15T12:16:11;99942.22;;;19.13;44.90
65175;BME280;51761;42.126;24.752;2022-11-15T12:18:38;99929.97;;;19.16;44.83
65175;BME280;51761;42.126;24.752;2022-11-15T12:21:14;99922.88;;;19.29;44.07
65175;BME280;51761;42.126;24.752;2022-11-15T12:23:50;99902.41;;;19.34;43.86
65175;BME280;51761;42.126;24.752;2022-11-15T12:26:24;99915.75;;;19.43;43.96
65175;BME280;51761;42.126;24.752;2022-11-15T12:28:58;99917.59;;;19.55;43.92
65175;BME280;51761;42.126;24.752;2022-11-15T12:31:38;99920.66;;;19.42;44.34
65175;BME280;51761;42.126;24.752;2022-11-15T12:34:28;99899.63;;;18.90;44.93
65175;BME280;51761;42.126;24.752;2022-11-15T12:36:55;99902.91;;;18.70;45.27
65175;BME280;51761;42.126;24.752;2022-11-15T12:40:03;99903.53;;;18.56;45.80
65175;BME280;51761;42.126;24.752;2022-11-15T12:47:25;99897.84;;;18.38;46.52
65175;BME280;51761;42.126;24.752;2022-11-15T12:49:51;99866.66;;;18.11;46.73
65175;BME280;51761;42.126;24.752;2022-11-15T12:52:18;99888.09;;;18.39;46.55
65175;BME280;51761;42.126;24.752;2022-11-15T12:54:50;99891.66;;;18.13;47.34
65175;BME280;51761;42.126;24.752;2022-11-15T13:00:01;99884.22;;;17.97;47.81
65175;BME280;51761;42.126;24.752;2022-11-15T13:02:40;99872.66;;;17.65;48.71
65175;BME280;51761;42.126;24.752;2022-11-15T13:22:43;99867.47;;;17.12;51.24
65175;BME280;51761;42.126;24.752;2022-11-15T13:25:51;99852.16;;;16.91;51.74
65175;BME280;51761;42.126;24.752;2022-11-15T13:28:31;99853.97;;;16.85;51.87
65175;BME280;51761;42.126;24.752;2022-11-15T13:33:59;99834.28;;;16.73;52.50
65175;BME280;51761;42.126;24.752;2022-11-15T13:36:34;99844.91;;;16.69;52.36
65175;BME280;51761;42.126;24.752;2022-11-15T13:39:05;99843.94;;;16.41;53.21
65175;BME280;51761;42.126;24.752;2022-11-15T13:41:33;99828.78;;;16.01;53.91
65175;BME280;51761;42.126;24.752;2022-11-15T13:44:00;99830.28;;;15.81;54.68
65175;BME280;51761;42.126;24.752;2022-11-15T13:46:33;99820.19;;;15.71;55.18
65175;BME280;51761;42.126;24.752;2022-11-15T13:49:08;99845.41;;;15.75;56.62
65175;BME280;51761;42.126;24.752;2022-11-15T13:51:49;99835.03;;;15.84;56.67
65175;BME280;51761;42.126;24.752;2022-11-15T13:59:54;99844.53;;;15.40;58.55
65175;BME280;51761;42.126;24.752;2022-11-15T14:02:26;99842.47;;;15.28;58.63
65175;BME280;51761;42.126;24.752;2022-11-15T14:04:58;99839.44;;;15.23;59.10
65175;BME280;51761;42.126;24.752;2022-11-15T14:07:26;99836.94;;;15.25;59.27
65175;BME280;51761;42.126;24.752;2022-11-15T14:09:53;99834.47;;;15.14;59.99
65175;BME280;51761;42.126;24.752;2022-11-15T14:12:31;99805.97;;;14.87;59.72
65175;BME280;51761;42.126;24.752;2022-11-15T14:14:58;99832.38;;;14.77;60.64
65175;BME280;51761;42.126;24.752;2022-11-15T14:19:59;99794.78;;;14.30;61.43
65175;BME280;51761;42.126;24.752;2022-11-15T14:22:27;99832.44;;;14.33;61.79
65175;BME280;51761;42.126;24.752;2022-11-15T14:27:42;99778.38;;;14.13;61.07
65175;BME280;51761;42.126;24.752;2022-11-15T14:30:15;99820.16;;;14.11;61.84
65175;BME280;51761;42.126;24.752;2022-11-15T14:32:47;99799.91;;;13.88;62.53
65175;BME280;51761;42.126;24.752;2022-11-15T14:35:18;99825.78;;;13.95;62.93
65175;BME280;51761;42.126;24.752;2022-11-15T14:37:45;99828.72;;;13.92;63.17
65175;BME280;51761;42.126;24.752;2022-11-15T14:40:19;99735.16;;;13.34;63.78
65175;BME280;51761;42.126;24.752;2022-11-15T14:42:46;99793.53;;;13.71;64.71
65175;BME280;51761;42.126;24.752;2022-11-15T14:45:14;99815.22;;;13.71;64.86
65175;BME280;51761;42.126;24.752;2022-11-15T14:47:41;99814.16;;;13.65;65.24
65175;BME280;51761;42.126;24.752;2022-11-15T14:50:14;99803.22;;;13.54;65.62
65175;BME280;51761;42.126;24.752;2022-11-15T14:52:41;99815.19;;;13.55;66.00
65175;BME280;51761;42.126;24.752;2022-11-15T14:55:24;99804.69;;;13.59;66.17
65175;BME280;51761;42.126;24.752;2022-11-15T14:57:50;99813.97;;;13.40;66.75
65175;BME280;51761;42.126;24.752;2022-11-15T15:00:18;99806.59;;;13.14;67.77
65175;BME280;51761;42.126;24.752;2022-11-15T15:02:45;99806.03;;;13.03;68.33
65175;BME280;51761;42.126;24.752;2022-11-15T15:05:25;99810.91;;;12.99;68.79
65175;BME280;51761;42.126;24.752;2022-11-15T15:07:52;99811.44;;;12.94;68.96
65175;BME280;51761;42.126;24.752;2022-11-15T15:10:20;99781.03;;;12.73;69.10
65175;BME280;51761;42.126;24.752;2022-11-15T15:12:46;99817.69;;;12.82;69.48
65175;BME280;51761;42.126;24.752;2022-11-15T15:15:18;99794.13;;;12.60;69.95